Arimo, Idaho
Current Conditions -  °F | °C
As of 9:06 PM on Saturday 20 Dec 2014 (Local Time) from KPIH Reporting Station
Overcast Overcast  
Wind Chill: -1°   Ceiling: 2800
Heat Index:   Visibility: 10mi
Dew Point:   Wind: 16mph
Humidity: 82%   Direction: 180°S
Pressure: 29.95"   Gusts: 21mph
Location:  42.56°N, 112.17°W
Report Text: KPIH 210406Z 18014G18KT 10SM BKN028 OVC034 04/01 A2995 RMK AO2 T00390011
Loading
Personal Weather Stations






























Interactive Weather Map New forecast layout! Learn more

10-Day Weather Forecast

Advertisements
Track Severe Weather on mobile